Aviation Digital Data Service (ADDS)

Output produced by METARs form (1830 UTC 20 August 2014)
found at http://aviationweather.gov/adds/metars/
 
KGON 201736Z 2018/2118 17008KT P6SM FEW050 
     FM210100 05003KT P6SM SCT050 
     FM211500 14007KT P6SM BKN050